Terminal Aerodrome Forecast
Issued by NWS Sioux Falls, SD

Home | Current Version | Previous Version | Graphics & Text | Print | Product List | Glossary On
Versions: 1 2 3 4 5 6 7 8 9 10 11 12 13 14 15 16 17 18 19 20 21 22 23 24
000
FTUS43 KFSD 291720
TAFSUX
TAF
KSUX 291720Z 2918/3018 31019G29KT P6SM SCT045
     FM291900 31019G28KT P6SM BKN050
     FM300000 32014KT P6SM SCT150
     FM300200 31007KT P6SM FEW250
     FM301500 30012G18KT P6SM FEW200=

USA.gov is the U.S. government's official web portal to all federal, state and local government web resources and services.